createdAt,value
2022-08-20T00:04:10.820Z,23.67
2022-08-20T00:09:13.978Z,23.64
2022-08-20T00:14:16.420Z,23.43
2022-08-20T00:19:18.920Z,23.53
2022-08-20T00:24:21.408Z,23.07
2022-08-20T00:29:24.034Z,23.07
2022-08-20T00:34:26.783Z,22.67
2022-08-20T00:39:29.300Z,22.98
2022-08-20T00:44:32.067Z,23.26
2022-08-20T00:49:34.645Z,22.61
2022-08-20T00:54:46.795Z,23.21
2022-08-20T00:59:51.788Z,23.96
2022-08-20T01:04:55.241Z,24.25
2022-08-20T01:09:59.468Z,24.02
2022-08-20T01:15:05.607Z,24.11
2022-08-20T01:20:16.927Z,23.52
2022-08-20T01:25:33.196Z,23.44
2022-08-20T01:30:37.283Z,23.60
2022-08-20T01:35:42.730Z,23.58
2022-08-20T01:40:57.359Z,23.75
2022-08-20T01:45:59.932Z,23.50
2022-08-20T01:51:14.571Z,23.63
2022-08-20T01:56:22.598Z,23.84
2022-08-20T02:01:46.386Z,24.00
2022-08-20T02:06:58.244Z,24.28
2022-08-20T02:12:01.072Z,23.94
2022-08-20T02:17:03.718Z,24.02
2022-08-20T02:22:25.276Z,23.67
2022-08-20T02:27:28.219Z,23.67
2022-08-20T02:32:34.194Z,23.65
2022-08-20T02:37:38.174Z,23.43
2022-08-20T02:42:42.670Z,22.71
2022-08-20T02:47:47.093Z,22.96
2022-08-20T02:52:51.854Z,22.89
2022-08-20T02:57:57.647Z,23.26
2022-08-20T03:03:02.252Z,22.95
2022-08-20T03:08:07.648Z,22.59
2022-08-20T03:13:12.558Z,22.57
2022-08-20T03:18:17.595Z,22.49
2022-08-20T03:23:21.651Z,22.40
2022-08-20T03:28:24.165Z,22.52
2022-08-20T03:33:27.864Z,22.23
2022-08-20T03:38:33.260Z,21.88
2022-08-20T03:43:37.587Z,22.02
2022-08-20T03:48:40.527Z,21.93
2022-08-20T03:53:43.173Z,21.76
2022-08-20T03:58:46.456Z,21.83
2022-08-20T04:03:52.103Z,22.58
2022-08-20T04:08:57.830Z,22.62
2022-08-20T04:14:00.377Z,22.80
2022-08-20T04:19:04.146Z,22.18
2022-08-20T04:24:06.946Z,22.45
2022-08-20T04:29:09.569Z,22.88
2022-08-20T04:34:12.156Z,22.60
2022-08-20T04:39:15.871Z,22.08
2022-08-20T04:44:19.286Z,22.12
2022-08-20T04:49:25.170Z,21.57
2022-08-20T04:54:27.622Z,21.33
2022-08-20T04:59:30.142Z,21.19
2022-08-20T05:04:32.615Z,21.53
2022-08-20T05:09:43.715Z,21.94
2022-08-20T05:14:47.292Z,21.50
2022-08-20T05:19:51.854Z,21.82
2022-08-20T05:24:56.475Z,21.86
2022-08-20T05:30:09.152Z,21.81
2022-08-20T05:35:14.805Z,22.25
2022-08-20T05:40:17.847Z,21.63
2022-08-20T05:45:22.375Z,21.48
2022-08-20T05:50:25.224Z,21.41
2022-08-20T05:55:28.931Z,21.88
2022-08-20T06:00:33.986Z,22.16
2022-08-20T06:05:36.617Z,21.85
2022-08-20T06:10:40.732Z,21.93
2022-08-20T06:15:45.850Z,22.89
2022-08-20T06:20:48.323Z,22.66
2022-08-20T06:25:51.286Z,23.23
2022-08-20T06:30:53.746Z,23.04
2022-08-20T06:35:56.619Z,22.73
2022-08-20T06:40:59.593Z,22.82
2022-08-20T06:46:02.353Z,22.44
2022-08-20T06:51:06.531Z,22.60
2022-08-20T06:56:09.694Z,23.23
2022-08-20T07:01:13.889Z,23.90
2022-08-20T07:06:17.763Z,24.13
2022-08-20T07:11:26.599Z,24.15
2022-08-20T07:16:30.883Z,24.22
2022-08-20T07:21:33.848Z,24.04
2022-08-20T07:26:36.660Z,23.83
2022-08-20T07:31:58.134Z,23.01
2022-08-20T07:37:01.304Z,22.67
2022-08-20T07:42:03.861Z,22.61
2022-08-20T07:47:06.924Z,23.52
2022-08-20T07:52:09.785Z,24.21
2022-08-20T07:57:12.312Z,23.68
2022-08-20T08:02:14.752Z,23.82
2022-08-20T08:07:17.670Z,24.41
2022-08-20T08:12:21.372Z,24.51
2022-08-20T08:17:23.904Z,25.06
2022-08-20T08:22:26.756Z,25.28
2022-08-20T08:27:32.735Z,25.63
2022-08-20T08:32:37.623Z,26.47
2022-08-20T08:37:41.873Z,26.11
2022-08-20T08:42:55.717Z,25.77
2022-08-20T08:47:59.293Z,25.58
2022-08-20T08:53:03.105Z,25.41
2022-08-20T08:58:06.437Z,25.72
2022-08-20T09:03:32.879Z,25.67
2022-08-20T09:08:42.593Z,25.51
2022-08-20T09:13:45.125Z,25.49
2022-08-20T09:18:47.565Z,25.53
2022-08-20T09:23:50.132Z,25.55
2022-08-20T09:28:52.605Z,25.73
2022-08-20T09:33:55.787Z,25.93
2022-08-20T09:38:58.694Z,26.14
2022-08-20T09:44:04.112Z,25.99
2022-08-20T09:49:06.650Z,26.13
2022-08-20T09:54:11.955Z,26.29
2022-08-20T09:59:16.181Z,26.15
2022-08-20T10:04:18.648Z,27.17
2022-08-20T10:09:21.584Z,28.78
2022-08-20T10:14:24.072Z,27.36
2022-08-20T10:19:26.714Z,26.70
2022-08-20T10:24:29.710Z,26.81
2022-08-20T10:29:32.487Z,26.22
2022-08-20T10:34:34.943Z,27.43
2022-08-20T10:39:37.495Z,28.00
2022-08-20T10:44:40.494Z,28.01
2022-08-20T10:49:42.950Z,29.39
2022-08-20T10:54:46.402Z,27.32
2022-08-20T10:59:50.950Z,26.64
2022-08-20T11:04:54.077Z,26.39
2022-08-20T11:09:56.995Z,26.60
2022-08-20T11:14:59.519Z,27.16
2022-08-20T11:20:02.869Z,27.78
2022-08-20T11:25:07.099Z,27.69
2022-08-20T11:30:13.287Z,26.58
2022-08-20T11:40:38.688Z,26.34
2022-08-20T11:45:41.306Z,26.14
2022-08-20T11:50:43.921Z,25.95
2022-08-20T11:55:47.293Z,25.71
2022-08-20T12:00:50.279Z,25.69
2022-08-20T12:05:52.964Z,25.21
2022-08-20T12:10:56.550Z,25.27
2022-08-20T12:15:59.190Z,25.67
2022-08-20T12:21:02.013Z,25.81
2022-08-20T12:26:04.825Z,24.92
2022-08-20T12:31:07.417Z,24.48
2022-08-20T12:36:10.960Z,25.41
2022-08-20T12:41:13.460Z,25.99
2022-08-20T12:46:16.019Z,25.84
2022-08-20T12:51:18.631Z,25.45
2022-08-20T12:56:21.085Z,25.62
2022-08-20T13:01:23.775Z,25.64
2022-08-20T13:06:26.335Z,25.58
2022-08-20T13:11:30.902Z,25.87
2022-08-20T13:16:33.604Z,26.45
2022-08-20T13:21:36.875Z,26.40
2022-08-20T13:26:39.778Z,26.43
2022-08-20T13:31:43.206Z,27.35
2022-08-20T13:36:45.653Z,26.72
2022-08-20T13:41:48.180Z,26.39
2022-08-20T13:46:50.883Z,26.40
2022-08-20T13:51:55.365Z,29.27
2022-08-20T13:57:12.617Z,28.59
2022-08-20T14:02:17.202Z,26.88
2022-08-20T14:07:32.516Z,26.22
2022-08-20T14:12:35.739Z,25.90
2022-08-20T14:17:48.627Z,25.92
2022-08-20T14:22:51.092Z,25.10
2022-08-20T14:27:54.764Z,26.11
2022-08-20T14:32:57.813Z,25.39
2022-08-20T14:38:00.579Z,28.28
2022-08-20T14:43:03.823Z,27.68
2022-08-20T14:48:09.260Z,27.26
2022-08-20T14:53:12.819Z,26.57
2022-08-20T14:58:16.971Z,28.09
2022-08-20T15:03:21.056Z,28.76
2022-08-20T15:08:23.642Z,28.28
2022-08-20T15:13:31.538Z,28.60
2022-08-20T15:18:34.474Z,28.27
2022-08-20T15:23:36.993Z,29.21
2022-08-20T15:28:39.734Z,28.82
2022-08-20T15:33:42.195Z,26.47
2022-08-20T15:38:44.687Z,25.74
2022-08-20T15:43:47.200Z,27.12
2022-08-20T15:48:49.932Z,28.03
2022-08-20T15:53:52.351Z,28.25
2022-08-20T15:59:26.047Z,28.16
2022-08-20T16:04:47.518Z,28.09
2022-08-20T16:10:05.131Z,27.72
2022-08-20T16:15:24.804Z,27.56
2022-08-20T16:20:35.317Z,27.33
2022-08-20T16:26:02.493Z,27.10
2022-08-20T16:31:12.012Z,26.79
2022-08-20T16:36:39.694Z,26.54
2022-08-20T16:41:46.404Z,26.36
2022-08-20T16:47:13.588Z,26.30
2022-08-20T16:52:16.935Z,26.04
2022-08-20T16:57:20.869Z,26.04
2022-08-20T17:02:23.744Z,26.09
2022-08-20T17:07:50.169Z,26.08
2022-08-20T17:13:00.737Z,26.06
2022-08-20T17:18:27.485Z,25.98
2022-08-20T17:23:49.075Z,25.92
2022-08-20T17:29:00.681Z,25.87
2022-08-20T17:34:03.910Z,25.78
2022-08-20T17:39:18.344Z,25.82
2022-08-20T17:44:29.448Z,25.90
2022-08-20T17:49:57.438Z,25.72
2022-08-20T17:55:08.002Z,25.63
2022-08-20T18:00:16.379Z,25.35
2022-08-20T18:05:24.122Z,25.22
2022-08-20T18:10:28.081Z,24.98
2022-08-20T18:15:39.469Z,24.88
2022-08-20T18:21:19.653Z,24.75
2022-08-20T18:26:56.978Z,24.54
2022-08-20T18:32:26.427Z,24.36
2022-08-20T18:37:32.972Z,24.21
2022-08-20T18:42:37.666Z,24.19
2022-08-20T18:47:47.247Z,24.07
2022-08-20T18:52:53.064Z,24.02
2022-08-20T18:57:59.749Z,23.96
2022-08-20T19:03:08.175Z,23.93
2022-08-20T19:08:24.061Z,23.95
2022-08-20T19:13:41.724Z,23.93
2022-08-20T19:18:52.701Z,23.95
2022-08-20T19:23:58.256Z,23.74
2022-08-20T19:29:02.782Z,23.73
2022-08-20T19:34:19.004Z,23.59
2022-08-20T19:39:25.735Z,23.64
2022-08-20T19:44:45.558Z,23.47
2022-08-20T19:50:01.079Z,23.63
2022-08-20T19:55:04.299Z,23.40
2022-08-20T20:00:12.960Z,23.27
2022-08-20T20:05:16.124Z,23.54
2022-08-20T20:10:32.963Z,23.69
2022-08-20T20:15:36.722Z,24.26
2022-08-20T20:20:56.998Z,24.14
2022-08-20T20:26:07.019Z,24.15
2022-08-20T20:31:13.380Z,24.21
2022-08-20T20:36:33.365Z,24.49
2022-08-20T20:41:37.442Z,24.47
2022-08-20T20:46:40.409Z,24.50
2022-08-20T20:51:58.951Z,24.19
2022-08-20T20:57:36.372Z,24.25
2022-08-20T21:02:45.561Z,23.73
2022-08-20T21:07:51.441Z,23.70
2022-08-20T21:12:54.551Z,23.20
2022-08-20T21:18:00.721Z,23.19
2022-08-20T21:23:03.968Z,23.51
2022-08-20T21:28:07.088Z,23.67
2022-08-20T21:33:09.799Z,23.68
2022-08-20T21:38:13.817Z,23.82
2022-08-20T21:43:16.675Z,24.06
2022-08-20T21:48:21.500Z,24.16
2022-08-20T21:53:23.942Z,24.01
2022-08-20T21:58:26.876Z,23.27
2022-08-20T22:03:41.034Z,22.36
2022-08-20T22:08:43.888Z,22.04
2022-08-20T22:13:46.992Z,22.05
2022-08-20T22:18:50.494Z,22.17
2022-08-20T22:23:54.721Z,22.77
2022-08-20T22:28:57.299Z,23.08
2022-08-20T22:34:00.273Z,23.57
2022-08-20T22:39:03.870Z,23.41
2022-08-20T22:44:06.512Z,22.76
2022-08-20T22:49:13.258Z,23.06
2022-08-20T22:54:21.972Z,22.53
2022-08-20T22:59:24.522Z,22.06
2022-08-20T23:04:31.439Z,22.46
2022-08-20T23:09:33.853Z,21.45
2022-08-20T23:14:36.872Z,21.02
2022-08-20T23:19:40.422Z,21.53
2022-08-20T23:24:43.088Z,21.64
2022-08-20T23:29:46.261Z,21.30
2022-08-20T23:34:48.945Z,21.11
2022-08-20T23:39:52.133Z,22.07
2022-08-20T23:44:54.628Z,22.93
2022-08-20T23:49:57.135Z,23.41
2022-08-20T23:54:59.639Z,23.77
